createdAt,value
2023-06-22T00:00:04.978Z,212.24
2023-06-22T00:01:05.095Z,212.19
2023-06-22T00:02:05.065Z,211.96
2023-06-22T00:03:05.181Z,210.17
2023-06-22T00:04:05.183Z,213.80
2023-06-22T00:05:05.212Z,215.47
2023-06-22T00:06:05.248Z,216.16
2023-06-22T00:07:05.294Z,213.87
2023-06-22T00:08:05.413Z,213.33
2023-06-22T00:09:05.375Z,213.38
2023-06-22T00:10:05.455Z,212.68
2023-06-22T00:11:05.484Z,209.14
2023-06-22T00:12:05.539Z,212.44
2023-06-22T00:13:05.577Z,212.35
2023-06-22T00:14:05.624Z,214.18
2023-06-22T00:15:05.634Z,211.70
2023-06-22T00:16:05.675Z,212.72
2023-06-22T00:17:05.785Z,210.83
2023-06-22T00:18:05.914Z,210.50
2023-06-22T00:19:05.850Z,211.50
2023-06-22T00:20:05.854Z,212.18
2023-06-22T00:21:05.912Z,213.72
2023-06-22T00:22:06.010Z,211.41
2023-06-22T00:23:06.030Z,209.64
2023-06-22T00:24:06.061Z,213.18
2023-06-22T00:25:06.091Z,209.28
2023-06-22T00:26:06.143Z,213.59
2023-06-22T00:27:06.220Z,211.17
2023-06-22T00:28:06.253Z,208.95
2023-06-22T00:29:06.282Z,206.79
2023-06-22T00:30:06.300Z,207.93
2023-06-22T00:31:06.399Z,208.14
2023-06-22T00:32:06.403Z,209.91
2023-06-22T00:33:06.533Z,209.33
2023-06-22T00:34:06.504Z,205.46
2023-06-22T00:35:06.536Z,208.21
2023-06-22T00:36:06.580Z,208.57
2023-06-22T00:37:06.635Z,208.91
2023-06-22T00:38:06.656Z,207.76
2023-06-22T00:39:06.696Z,206.32
2023-06-22T00:40:06.747Z,208.15
2023-06-22T00:41:06.864Z,206.43
2023-06-22T00:42:06.858Z,206.86
2023-06-22T00:43:06.943Z,204.97
2023-06-22T00:44:06.975Z,207.69
2023-06-22T00:45:06.985Z,203.65
2023-06-22T00:46:07.066Z,205.68
2023-06-22T00:47:07.067Z,203.22
2023-06-22T00:48:07.198Z,206.59
2023-06-22T00:49:07.213Z,206.84
2023-06-22T00:50:07.231Z,204.37
2023-06-22T00:51:07.298Z,203.81
2023-06-22T00:52:07.333Z,205.50
2023-06-22T00:53:07.374Z,204.77
2023-06-22T00:54:07.436Z,203.54
2023-06-22T00:55:07.472Z,204.14
2023-06-22T00:56:07.537Z,206.56
2023-06-22T00:57:07.551Z,204.52
2023-06-22T00:58:07.589Z,203.88
2023-06-22T00:59:07.699Z,204.80
2023-06-22T01:00:07.714Z,203.40
2023-06-22T01:01:07.799Z,207.16
2023-06-22T01:02:07.803Z,202.81
2023-06-22T01:03:07.868Z,204.66
2023-06-22T01:04:08.057Z,203.26
2023-06-22T01:05:07.939Z,200.88
2023-06-22T01:06:07.980Z,203.61
2023-06-22T01:07:08.027Z,201.52
2023-06-22T01:08:08.088Z,203.16
2023-06-22T01:09:08.136Z,202.53
2023-06-22T01:10:08.180Z,203.52
2023-06-22T01:11:08.261Z,202.87
2023-06-22T01:12:08.271Z,204.21
2023-06-22T01:13:08.328Z,201.62
2023-06-22T01:14:08.375Z,202.15
2023-06-22T01:15:08.428Z,203.50
2023-06-22T01:16:08.481Z,203.97
2023-06-22T01:17:08.535Z,201.87
2023-06-22T01:18:08.544Z,201.50
2023-06-22T01:19:08.617Z,205.21
2023-06-22T01:20:08.670Z,204.26
2023-06-22T01:21:08.680Z,204.82
2023-06-22T01:22:08.738Z,203.04
2023-06-22T01:23:08.817Z,202.52
2023-06-22T01:24:08.811Z,203.12
2023-06-22T01:25:08.854Z,202.26
2023-06-22T01:26:08.982Z,204.65
2023-06-22T01:27:08.973Z,204.10
2023-06-22T01:28:09.020Z,201.04
2023-06-22T01:29:09.057Z,200.63
2023-06-22T01:30:09.081Z,203.17
2023-06-22T01:31:09.118Z,201.57
2023-06-22T01:32:09.908Z,201.83
2023-06-22T01:33:09.341Z,198.92
2023-06-22T01:34:09.309Z,200.49
2023-06-22T01:35:09.291Z,200.19
2023-06-22T01:36:09.379Z,199.75
2023-06-22T01:37:09.399Z,201.45
2023-06-22T01:38:09.441Z,198.59
2023-06-22T01:39:09.570Z,199.16
2023-06-22T01:40:09.684Z,199.52
2023-06-22T01:41:09.658Z,199.32
2023-06-22T01:42:09.730Z,200.87
2023-06-22T01:43:09.705Z,198.13
2023-06-22T01:44:09.848Z,199.60
2023-06-22T01:45:09.826Z,200.73
2023-06-22T01:46:09.859Z,200.53
2023-06-22T01:47:09.921Z,200.78
2023-06-22T01:48:09.970Z,200.19
2023-06-22T01:49:10.002Z,201.42
2023-06-22T01:50:10.058Z,199.93
2023-06-22T01:51:10.121Z,202.65
2023-06-22T01:52:10.169Z,202.76
2023-06-22T01:53:10.173Z,200.46
2023-06-22T01:54:10.237Z,200.70
2023-06-22T01:55:10.308Z,199.79
2023-06-22T01:56:10.342Z,200.43
2023-06-22T01:57:10.431Z,202.04
2023-06-22T01:58:10.415Z,201.96
2023-06-22T01:59:10.486Z,202.96
2023-06-22T02:00:10.544Z,201.47
2023-06-22T02:01:10.614Z,202.81
2023-06-22T02:02:10.719Z,198.59
2023-06-22T02:03:10.773Z,198.50
2023-06-22T02:04:12.734Z,197.94
2023-06-22T02:05:10.781Z,200.41
2023-06-22T02:06:10.837Z,198.65
2023-06-22T02:07:10.890Z,200.27
2023-06-22T02:08:10.900Z,199.80
2023-06-22T02:09:11.022Z,201.38
2023-06-22T02:10:11.005Z,197.37
2023-06-22T02:11:11.054Z,200.36
2023-06-22T02:12:11.097Z,199.88
2023-06-22T02:13:11.157Z,200.67
2023-06-22T02:14:11.191Z,198.26
2023-06-22T02:15:11.245Z,198.95
2023-06-22T02:16:11.284Z,198.78
2023-06-22T02:17:11.333Z,199.04
2023-06-22T02:18:11.529Z,200.00
2023-06-22T02:19:11.454Z,198.22
2023-06-22T02:20:11.439Z,199.18
2023-06-22T02:21:11.494Z,197.86
2023-06-22T02:22:11.560Z,201.07
2023-06-22T02:23:11.632Z,202.83
2023-06-22T02:24:11.669Z,201.68
2023-06-22T02:25:11.687Z,201.08
2023-06-22T02:26:11.741Z,201.08
2023-06-22T02:27:11.867Z,201.10
2023-06-22T02:28:11.839Z,200.44
2023-06-22T02:29:11.878Z,201.70
2023-06-22T02:30:11.930Z,199.92
2023-06-22T02:31:12.079Z,200.50
2023-06-22T02:32:12.047Z,199.52
2023-06-22T02:33:12.120Z,200.67
2023-06-22T02:34:12.152Z,200.92
2023-06-22T02:35:12.202Z,200.37
2023-06-22T02:36:12.236Z,200.66
2023-06-22T02:37:12.332Z,199.19
2023-06-22T02:38:12.350Z,198.52
2023-06-22T02:39:12.513Z,200.40
2023-06-22T02:40:12.467Z,199.00
2023-06-22T02:41:12.623Z,199.46
2023-06-22T02:42:12.612Z,197.99
2023-06-22T02:43:12.617Z,199.12
2023-06-22T02:44:12.666Z,195.91
2023-06-22T02:45:12.705Z,197.90
2023-06-22T02:46:12.736Z,198.72
2023-06-22T02:47:12.861Z,199.58
2023-06-22T02:48:12.934Z,198.20
2023-06-22T02:49:12.937Z,200.91
2023-06-22T02:50:12.979Z,200.74
2023-06-22T02:51:13.037Z,198.77
2023-06-22T02:52:13.091Z,199.24
2023-06-22T02:53:13.131Z,199.79
2023-06-22T02:54:13.194Z,200.04
2023-06-22T02:55:13.253Z,197.77
2023-06-22T02:56:13.274Z,198.96
2023-06-22T02:57:13.328Z,201.05
2023-06-22T02:58:13.370Z,197.90
2023-06-22T02:59:13.451Z,200.38
2023-06-22T03:00:13.516Z,199.24
2023-06-22T03:01:13.629Z,198.97
2023-06-22T03:02:13.670Z,198.38
2023-06-22T03:03:13.737Z,199.07
2023-06-22T03:04:13.731Z,199.78
2023-06-22T03:05:13.781Z,197.47
2023-06-22T03:06:13.819Z,197.58
2023-06-22T03:07:13.895Z,198.05
2023-06-22T03:08:13.966Z,199.36
2023-06-22T03:09:14.001Z,198.07
2023-06-22T03:10:14.071Z,195.31
2023-06-22T03:11:14.072Z,197.71
2023-06-22T03:12:14.133Z,199.47
2023-06-22T03:13:14.162Z,195.78
2023-06-22T03:14:14.231Z,196.14
2023-06-22T03:15:14.339Z,197.76
2023-06-22T03:16:14.391Z,196.51
2023-06-22T03:17:14.413Z,197.85
2023-06-22T03:18:14.466Z,194.22
2023-06-22T03:19:14.557Z,198.95
2023-06-22T03:20:14.611Z,195.78
2023-06-22T03:21:14.626Z,194.83
2023-06-22T03:22:14.811Z,197.68
2023-06-22T03:23:14.704Z,196.85
2023-06-22T03:24:14.817Z,197.67
2023-06-22T03:25:14.880Z,195.38
2023-06-22T03:26:14.871Z,198.37
2023-06-22T03:27:14.987Z,195.50
2023-06-22T03:28:15.034Z,197.73
2023-06-22T03:29:15.027Z,198.23
2023-06-22T03:30:15.198Z,193.38
2023-06-22T03:31:15.174Z,197.02
2023-06-22T03:32:15.227Z,197.33
2023-06-22T03:33:15.242Z,197.09
2023-06-22T03:34:15.303Z,195.13
2023-06-22T03:35:15.377Z,194.59
2023-06-22T03:36:15.396Z,195.71
2023-06-22T03:37:15.462Z,195.86
2023-06-22T03:38:15.497Z,196.34
2023-06-22T03:39:15.581Z,196.05
2023-06-22T03:40:15.609Z,195.70
2023-06-22T03:41:15.676Z,195.15
2023-06-22T03:42:15.698Z,196.10
2023-06-22T03:43:15.742Z,192.64
2023-06-22T03:44:15.819Z,196.40
2023-06-22T03:45:15.879Z,195.44
2023-06-22T03:46:15.937Z,193.84
2023-06-22T03:47:15.966Z,192.85
2023-06-22T03:48:16.049Z,195.76
2023-06-22T03:49:16.088Z,195.44
2023-06-22T03:50:16.101Z,195.37
2023-06-22T03:51:16.164Z,196.21
2023-06-22T03:52:16.232Z,193.82
2023-06-22T03:53:16.279Z,195.20
2023-06-22T03:54:16.344Z,197.41
2023-06-22T03:55:16.382Z,194.87
2023-06-22T03:56:16.404Z,192.02
2023-06-22T03:57:16.528Z,193.28
2023-06-22T03:58:16.535Z,197.19
2023-06-22T03:59:16.571Z,192.66
2023-06-22T04:00:16.676Z,192.84
2023-06-22T04:01:16.685Z,195.04
2023-06-22T04:02:16.802Z,192.73
2023-06-22T04:03:17.098Z,195.23
2023-06-22T04:04:16.978Z,198.20
2023-06-22T04:05:16.938Z,197.09
2023-06-22T04:06:17.055Z,200.20
2023-06-22T04:07:16.982Z,198.20
2023-06-22T04:08:17.121Z,195.14
2023-06-22T04:09:17.092Z,199.35
2023-06-22T04:10:18.451Z,194.96
2023-06-22T04:11:17.163Z,193.77
2023-06-22T04:12:17.187Z,195.31
2023-06-22T04:13:17.297Z,192.26
2023-06-22T04:14:17.253Z,193.75
2023-06-22T04:15:17.310Z,192.71
2023-06-22T04:16:17.364Z,191.35
2023-06-22T04:17:17.354Z,190.57
2023-06-22T04:18:18.321Z,191.00
2023-06-22T04:19:17.450Z,190.74
2023-06-22T04:20:17.525Z,192.68
2023-06-22T04:21:17.546Z,192.63
2023-06-22T04:22:17.588Z,193.33
2023-06-22T04:23:17.639Z,190.23
2023-06-22T04:24:17.650Z,194.60
2023-06-22T04:25:17.742Z,194.08
2023-06-22T04:26:17.759Z,197.02
2023-06-22T04:27:17.813Z,195.93
2023-06-22T04:28:17.891Z,196.14
2023-06-22T04:29:17.880Z,195.30
2023-06-22T04:30:17.953Z,198.44
2023-06-22T04:31:18.022Z,200.57
2023-06-22T04:32:18.072Z,199.32
2023-06-22T04:33:18.125Z,196.33
2023-06-22T04:34:18.119Z,194.48
2023-06-22T04:35:18.185Z,200.89
2023-06-22T04:36:18.222Z,200.71
2023-06-22T04:37:18.287Z,199.40
2023-06-22T04:38:18.312Z,200.04
2023-06-22T04:39:18.487Z,199.83
2023-06-22T04:40:18.436Z,201.97
2023-06-22T04:41:18.509Z,201.71
2023-06-22T04:42:18.554Z,201.19
2023-06-22T04:43:18.669Z,199.25
2023-06-22T04:44:18.672Z,199.77
2023-06-22T04:45:18.712Z,200.50
2023-06-22T04:46:18.755Z,200.47
2023-06-22T04:47:18.832Z,201.23
2023-06-22T04:48:18.904Z,202.47
2023-06-22T04:49:18.917Z,203.24
2023-06-22T04:50:19.077Z,200.78
2023-06-22T04:51:19.001Z,205.81
2023-06-22T04:52:19.101Z,200.29
2023-06-22T04:53:19.107Z,203.21
2023-06-22T04:54:19.188Z,202.22
2023-06-22T04:55:19.240Z,201.57
2023-06-22T04:56:19.305Z,198.42
2023-06-22T04:57:19.304Z,198.94
2023-06-22T04:58:19.418Z,199.29
2023-06-22T04:59:19.420Z,201.55
2023-06-22T05:00:19.465Z,201.61
2023-06-22T05:01:19.539Z,202.71
2023-06-22T05:02:19.604Z,204.00
2023-06-22T05:03:20.645Z,200.99
2023-06-22T05:04:19.811Z,206.32
2023-06-22T05:05:19.775Z,202.91
2023-06-22T05:06:19.788Z,202.35
2023-06-22T05:07:19.827Z,203.37
2023-06-22T05:08:19.909Z,202.13
2023-06-22T05:09:19.946Z,201.02
2023-06-22T05:10:20.023Z,203.52
2023-06-22T05:11:20.055Z,199.37
2023-06-22T05:12:20.068Z,199.26
2023-06-22T05:13:20.141Z,201.57
2023-06-22T05:14:20.248Z,203.42
2023-06-22T05:15:20.260Z,201.68
2023-06-22T05:16:20.321Z,202.44
2023-06-22T05:17:20.403Z,202.45
2023-06-22T05:18:20.540Z,201.45
2023-06-22T05:19:20.442Z,201.66
2023-06-22T05:20:20.539Z,203.16
2023-06-22T05:21:20.581Z,203.79
2023-06-22T05:22:20.619Z,200.85
2023-06-22T05:23:20.662Z,200.88
2023-06-22T05:24:20.727Z,206.90
2023-06-22T05:25:20.795Z,203.63
2023-06-22T05:26:20.819Z,205.92
2023-06-22T05:27:20.866Z,204.86
2023-06-22T05:28:20.922Z,204.64
2023-06-22T05:29:20.957Z,205.70
2023-06-22T05:30:22.411Z,205.92
2023-06-22T05:31:21.128Z,203.92
2023-06-22T05:32:21.198Z,202.95
2023-06-22T05:33:21.214Z,206.22
2023-06-22T05:34:21.198Z,202.52
2023-06-22T05:35:21.263Z,206.18
2023-06-22T05:36:21.326Z,207.57
2023-06-22T05:37:21.374Z,205.29
2023-06-22T05:38:21.441Z,208.30
2023-06-22T05:39:21.511Z,208.14
2023-06-22T05:40:21.521Z,210.32
2023-06-22T05:41:21.571Z,206.68
2023-06-22T05:42:21.634Z,207.41
2023-06-22T05:43:21.671Z,208.78
2023-06-22T05:44:21.721Z,207.21
2023-06-22T05:45:21.807Z,204.97
2023-06-22T05:46:21.799Z,207.43
2023-06-22T05:47:21.930Z,205.22
2023-06-22T05:48:21.940Z,204.96
2023-06-22T05:49:21.944Z,207.44
2023-06-22T05:50:21.994Z,208.68
2023-06-22T05:51:22.048Z,207.50
2023-06-22T05:52:22.161Z,212.13
2023-06-22T05:53:22.157Z,209.39
2023-06-22T05:54:22.203Z,212.12
2023-06-22T05:55:22.279Z,210.23
2023-06-22T05:56:22.324Z,208.31
2023-06-22T05:57:22.387Z,212.36
2023-06-22T05:58:22.387Z,211.35
2023-06-22T05:59:22.438Z,208.41
2023-06-22T06:00:22.479Z,210.81
2023-06-22T06:01:22.564Z,211.00
2023-06-22T06:02:22.599Z,213.44
2023-06-22T06:03:22.671Z,207.79
2023-06-22T06:04:23.518Z,210.39
2023-06-22T06:05:22.702Z,210.26
2023-06-22T06:06:22.761Z,213.94
2023-06-22T06:07:22.845Z,209.26
2023-06-22T06:08:22.834Z,208.56
2023-06-22T06:09:22.893Z,212.88
2023-06-22T06:10:22.923Z,211.23
2023-06-22T06:11:22.962Z,210.18
2023-06-22T06:12:23.001Z,211.01
2023-06-22T06:13:23.073Z,213.35
2023-06-22T06:14:23.069Z,214.49
2023-06-22T06:15:23.225Z,213.11
2023-06-22T06:16:23.149Z,213.60
2023-06-22T06:17:23.405Z,217.56
2023-06-22T06:18:23.245Z,222.44
2023-06-22T06:19:23.278Z,224.62
2023-06-22T06:20:23.373Z,219.74
2023-06-22T06:21:23.436Z,221.94
2023-06-22T06:22:23.519Z,221.70
2023-06-22T06:23:23.469Z,219.10
2023-06-22T06:24:23.552Z,224.25
2023-06-22T06:25:23.568Z,223.93
2023-06-22T06:26:24.362Z,220.84
2023-06-22T06:27:23.657Z,227.19
2023-06-22T06:28:23.721Z,224.61
2023-06-22T06:29:23.729Z,228.47
2023-06-22T06:30:23.862Z,231.44
2023-06-22T06:31:23.840Z,235.77
2023-06-22T06:32:23.886Z,242.72
2023-06-22T06:33:25.978Z,242.66
2023-06-22T06:34:23.940Z,245.87
2023-06-22T06:35:23.993Z,244.18
2023-06-22T06:36:24.056Z,244.36
2023-06-22T06:37:24.021Z,245.89
2023-06-22T06:38:24.095Z,248.54
2023-06-22T06:39:24.157Z,246.94
2023-06-22T06:40:24.172Z,248.17
2023-06-22T06:41:24.277Z,248.23
2023-06-22T06:42:24.267Z,248.53
2023-06-22T06:43:24.305Z,246.63
2023-06-22T06:44:24.351Z,249.41
2023-06-22T06:45:24.405Z,245.55
2023-06-22T06:46:24.555Z,245.64
2023-06-22T06:47:24.480Z,246.89
2023-06-22T06:48:24.530Z,249.88
2023-06-22T06:49:24.559Z,248.94
2023-06-22T06:50:24.609Z,248.23
2023-06-22T06:51:24.631Z,247.12
2023-06-22T06:52:24.726Z,246.26
2023-06-22T06:53:24.715Z,247.59
2023-06-22T06:54:24.853Z,248.96
2023-06-22T06:55:24.829Z,246.25
2023-06-22T06:56:24.931Z,242.13
2023-06-22T06:57:24.839Z,241.64
2023-06-22T06:58:24.912Z,239.15
2023-06-22T06:59:24.906Z,237.84
2023-06-22T07:00:25.001Z,236.94
2023-06-22T07:01:25.090Z,232.11
2023-06-22T07:02:25.037Z,228.99
2023-06-22T07:03:25.097Z,228.64
2023-06-22T07:04:25.157Z,227.14
2023-06-22T07:05:25.152Z,225.12
2023-06-22T07:06:25.159Z,227.01
2023-06-22T07:07:25.189Z,224.34
2023-06-22T07:08:25.267Z,223.02
2023-06-22T07:09:25.232Z,222.77
2023-06-22T07:10:25.404Z,223.08
2023-06-22T07:11:25.312Z,221.83
2023-06-22T07:12:25.357Z,225.36
2023-06-22T07:13:25.422Z,223.49
2023-06-22T07:14:25.497Z,222.24
2023-06-22T07:15:25.503Z,220.38
2023-06-22T07:16:25.492Z,222.21
2023-06-22T07:17:25.560Z,216.54
2023-06-22T07:18:25.536Z,215.93
2023-06-22T07:19:25.554Z,218.84
2023-06-22T07:20:25.678Z,216.86
2023-06-22T07:21:25.637Z,216.37
2023-06-22T07:22:25.681Z,218.12
2023-06-22T07:23:25.689Z,212.30
2023-06-22T07:24:25.704Z,219.34
2023-06-22T07:25:25.757Z,219.98
2023-06-22T07:26:25.803Z,218.31
2023-06-22T07:27:25.830Z,217.09
2023-06-22T07:28:25.946Z,216.84
2023-06-22T07:29:26.433Z,215.48
2023-06-22T07:30:25.986Z,218.03
2023-06-22T07:31:25.946Z,219.44
2023-06-22T07:32:25.965Z,218.46
2023-06-22T07:33:25.957Z,221.00
2023-06-22T07:34:26.007Z,225.66
2023-06-22T07:35:26.066Z,223.57
2023-06-22T07:36:26.043Z,222.53
2023-06-22T07:37:26.085Z,225.98
2023-06-22T07:38:26.080Z,222.21
2023-06-22T07:39:26.103Z,222.62
2023-06-22T07:40:26.126Z,221.03
2023-06-22T07:41:26.138Z,219.14
2023-06-22T07:42:26.189Z,216.15
2023-06-22T07:43:27.394Z,216.01
2023-06-22T07:44:26.206Z,214.79
2023-06-22T07:45:26.217Z,213.13
2023-06-22T07:46:26.246Z,212.14
2023-06-22T07:47:26.453Z,215.06
2023-06-22T07:48:26.241Z,215.87
2023-06-22T07:49:26.285Z,215.31
2023-06-22T07:50:26.295Z,216.18
2023-06-22T07:51:26.301Z,212.73
2023-06-22T07:52:26.306Z,215.01
2023-06-22T07:53:26.372Z,213.69
2023-06-22T07:54:26.415Z,212.45
2023-06-22T07:55:26.566Z,216.82
2023-06-22T07:56:26.374Z,218.07
2023-06-22T07:57:26.345Z,217.28
2023-06-22T07:58:26.355Z,216.60
2023-06-22T07:59:26.390Z,219.57
2023-06-22T08:00:26.425Z,222.40
2023-06-22T08:01:26.408Z,221.91
2023-06-22T08:02:26.464Z,225.24
2023-06-22T08:03:26.470Z,221.74
2023-06-22T08:04:26.421Z,215.51
2023-06-22T08:05:26.461Z,218.99
2023-06-22T08:06:26.442Z,214.28
2023-06-22T08:07:26.443Z,212.62
2023-06-22T08:08:26.451Z,210.72
2023-06-22T08:09:26.453Z,214.78
2023-06-22T08:10:26.462Z,218.51
2023-06-22T08:11:26.478Z,218.25
2023-06-22T08:12:26.476Z,221.94
2023-06-22T08:13:26.570Z,223.10
2023-06-22T08:14:26.676Z,225.07
2023-06-22T08:15:26.971Z,231.33
2023-06-22T08:16:26.526Z,231.36
2023-06-22T08:17:26.559Z,233.59
2023-06-22T08:18:26.593Z,242.52
2023-06-22T08:19:26.569Z,247.09
2023-06-22T08:20:26.564Z,250.00
2023-06-22T08:21:26.575Z,249.25
2023-06-22T08:22:26.568Z,249.84
2023-06-22T08:23:26.614Z,246.63
2023-06-22T08:24:26.603Z,250.00
2023-06-22T08:25:26.744Z,248.07
2023-06-22T08:26:26.626Z,249.06
2023-06-22T08:27:26.615Z,249.27
2023-06-22T08:28:26.596Z,249.23
2023-06-22T08:29:26.586Z,248.32
2023-06-22T08:30:27.096Z,250.00
2023-06-22T08:31:26.692Z,250.00
2023-06-22T08:32:26.761Z,249.10
2023-06-22T08:33:28.461Z,249.22
2023-06-22T08:34:26.698Z,247.28
2023-06-22T08:35:26.876Z,246.93
2023-06-22T08:36:26.693Z,249.85
2023-06-22T08:37:26.679Z,246.31
2023-06-22T08:38:26.758Z,249.66
2023-06-22T08:39:26.770Z,249.92
2023-06-22T08:40:26.772Z,248.05
2023-06-22T08:41:26.744Z,248.49
2023-06-22T08:42:26.754Z,247.47
2023-06-22T08:43:26.803Z,245.64
2023-06-22T08:44:26.776Z,249.05
2023-06-22T08:45:28.088Z,250.00
2023-06-22T08:46:26.842Z,249.05
2023-06-22T08:47:26.821Z,245.14
2023-06-22T08:48:26.782Z,242.99
2023-06-22T08:49:26.759Z,246.59
2023-06-22T08:50:26.921Z,248.10
2023-06-22T08:51:26.748Z,245.85
2023-06-22T08:52:26.950Z,246.59
2023-06-22T08:53:26.757Z,246.48
2023-06-22T08:54:26.735Z,246.47
2023-06-22T08:55:26.897Z,250.00
2023-06-22T08:56:26.716Z,250.00
2023-06-22T08:57:26.682Z,246.80
2023-06-22T08:58:26.790Z,248.98
2023-06-22T08:59:26.703Z,249.02
2023-06-22T09:00:26.681Z,248.02
2023-06-22T09:01:26.710Z,249.78
2023-06-22T09:02:26.812Z,250.00
2023-06-22T09:03:26.763Z,248.51
2023-06-22T09:04:27.032Z,247.08
2023-06-22T09:05:26.844Z,248.44
2023-06-22T09:06:26.715Z,247.18
2023-06-22T09:07:26.649Z,249.23
2023-06-22T09:08:26.651Z,247.27
2023-06-22T09:09:26.609Z,246.48
2023-06-22T09:10:26.694Z,248.05
2023-06-22T09:11:26.612Z,246.69
2023-06-22T09:12:26.638Z,245.47
2023-06-22T09:13:26.637Z,245.12
2023-06-22T09:14:26.605Z,245.95
2023-06-22T09:15:26.562Z,244.69
2023-06-22T09:16:26.573Z,245.90
2023-06-22T09:17:26.583Z,245.10
2023-06-22T09:18:26.599Z,243.42
2023-06-22T09:19:26.664Z,245.04
2023-06-22T09:20:26.626Z,244.56
2023-06-22T09:21:26.573Z,245.71
2023-06-22T09:22:26.562Z,248.71
2023-06-22T09:23:26.550Z,246.40
2023-06-22T09:24:26.532Z,247.90
2023-06-22T09:25:26.716Z,246.46
2023-06-22T09:26:26.523Z,245.88
2023-06-22T09:27:26.532Z,246.86
2023-06-22T09:28:26.494Z,246.78
2023-06-22T09:29:26.489Z,248.30
2023-06-22T09:30:26.680Z,247.93
2023-06-22T09:31:26.695Z,248.84
2023-06-22T09:32:26.492Z,248.57
2023-06-22T09:33:26.510Z,248.56
2023-06-22T09:34:26.502Z,248.27
2023-06-22T09:35:26.475Z,248.38
2023-06-22T09:36:26.429Z,248.58
2023-06-22T09:37:26.493Z,248.66
2023-06-22T09:38:26.445Z,247.76
2023-06-22T09:39:26.459Z,248.67
2023-06-22T09:40:26.509Z,249.48
2023-06-22T09:41:26.501Z,249.92
2023-06-22T09:42:26.512Z,247.44
2023-06-22T09:43:26.429Z,249.25
2023-06-22T09:44:26.382Z,249.29
2023-06-22T09:45:26.425Z,247.68
2023-06-22T09:46:26.633Z,249.16
2023-06-22T09:47:26.428Z,247.52
2023-06-22T09:48:26.416Z,245.48
2023-06-22T09:49:45.817Z,245.07
2023-06-22T09:50:27.637Z,245.35
2023-06-22T09:51:26.349Z,245.70
2023-06-22T09:52:34.190Z,247.07
2023-06-22T09:53:27.336Z,245.38
2023-06-22T09:54:26.406Z,246.25
2023-06-22T09:55:26.350Z,247.41
2023-06-22T09:56:28.795Z,246.93
2023-06-22T09:57:26.349Z,252.31
2023-06-22T09:58:26.324Z,248.82
2023-06-22T09:59:26.286Z,245.95
2023-06-22T10:00:26.358Z,247.53
2023-06-22T10:01:26.299Z,246.43
2023-06-22T10:02:26.461Z,248.99
2023-06-22T10:03:26.356Z,245.73
2023-06-22T10:04:26.434Z,247.11
2023-06-22T10:05:26.330Z,246.56
2023-06-22T10:06:26.326Z,248.77
2023-06-22T10:07:26.247Z,247.75
2023-06-22T10:08:26.224Z,250.00
2023-06-22T10:09:26.234Z,246.37
2023-06-22T10:10:26.226Z,247.65
2023-06-22T10:11:26.213Z,245.68
2023-06-22T10:12:26.214Z,248.04
2023-06-22T10:13:26.232Z,245.29
2023-06-22T10:14:26.231Z,243.90
2023-06-22T10:15:26.379Z,244.03
2023-06-22T10:16:26.174Z,246.43
2023-06-22T10:17:26.217Z,245.85
2023-06-22T10:18:26.170Z,242.74
2023-06-22T10:19:26.164Z,243.36
2023-06-22T10:20:26.163Z,239.98
2023-06-22T10:21:26.168Z,239.67
2023-06-22T10:22:26.356Z,236.03
2023-06-22T10:23:26.201Z,238.44
2023-06-22T10:24:26.149Z,236.21
2023-06-22T10:25:26.126Z,239.30
2023-06-22T10:26:26.092Z,241.90
2023-06-22T10:27:26.118Z,238.45
2023-06-22T10:28:26.120Z,240.17
2023-06-22T10:29:26.077Z,237.75
2023-06-22T10:30:26.112Z,238.14
2023-06-22T10:31:26.235Z,240.33
2023-06-22T10:32:26.198Z,238.40
2023-06-22T10:33:26.106Z,235.47
2023-06-22T10:34:26.076Z,237.07
2023-06-22T10:35:26.097Z,233.55
2023-06-22T10:36:26.081Z,233.13
2023-06-22T10:37:26.046Z,233.70
2023-06-22T10:38:26.029Z,231.04
2023-06-22T10:39:26.017Z,227.57
2023-06-22T10:40:26.065Z,221.72
2023-06-22T10:41:26.001Z,221.15
2023-06-22T10:42:26.024Z,221.50
2023-06-22T10:43:26.009Z,221.05
2023-06-22T10:44:26.059Z,221.27
2023-06-22T10:45:26.037Z,218.78
2023-06-22T10:46:26.001Z,219.76
2023-06-22T10:47:26.047Z,221.14
2023-06-22T10:48:25.945Z,221.28
2023-06-22T10:50:27.597Z,25.00
2023-06-22T10:51:27.556Z,25.00
2023-06-22T10:52:27.539Z,25.00
2023-06-22T10:53:27.593Z,25.00
2023-06-22T10:54:27.575Z,25.00
2023-06-22T10:55:27.957Z,27.27
2023-06-22T10:56:27.524Z,27.48
2023-06-22T10:57:27.510Z,28.07
2023-06-22T10:58:27.614Z,30.78
2023-06-22T10:59:27.574Z,30.66
2023-06-22T11:00:27.497Z,31.85
2023-06-22T11:01:38.344Z,26.56
2023-06-22T11:02:28.606Z,26.57
2023-06-22T11:03:28.434Z,15.79
2023-06-22T11:04:27.575Z,10.65
2023-06-22T11:05:27.646Z,0.00
2023-06-22T11:06:27.497Z,0.00
2023-06-22T11:07:27.456Z,1.01
2023-06-22T11:08:27.437Z,22.37
2023-06-22T11:09:29.599Z,26.14
2023-06-22T11:10:27.559Z,24.94
2023-06-22T11:11:27.622Z,25.00
2023-06-22T11:12:27.634Z,25.14
2023-06-22T11:13:27.709Z,25.88
2023-06-22T11:14:27.747Z,26.39
2023-06-22T11:15:27.876Z,25.00
2023-06-22T11:16:27.903Z,25.72
2023-06-22T11:17:27.980Z,26.77
2023-06-22T11:18:27.969Z,25.94
2023-06-22T11:19:28.054Z,27.87
2023-06-22T11:20:28.464Z,35.45
2023-06-22T11:21:28.170Z,45.41
2023-06-22T11:22:28.238Z,49.75
2023-06-22T11:23:28.287Z,46.65
2023-06-22T11:24:28.360Z,45.30
2023-06-22T11:25:28.527Z,42.43
2023-06-22T11:26:28.493Z,42.44
2023-06-22T11:27:28.475Z,43.70
2023-06-22T11:28:28.598Z,36.11
2023-06-22T11:29:37.338Z,44.41
2023-06-22T11:30:29.880Z,44.08
2023-06-22T11:31:28.666Z,36.47
2023-06-22T11:32:28.675Z,36.41
2023-06-22T11:33:28.577Z,37.44
2023-06-22T11:34:28.685Z,37.53
2023-06-22T11:35:28.587Z,27.23
2023-06-22T11:36:28.592Z,32.38
2023-06-22T11:37:28.565Z,28.99
2023-06-22T11:38:28.601Z,26.07
2023-06-22T11:39:38.942Z,26.71
2023-06-22T11:40:29.772Z,26.78
2023-06-22T11:41:28.570Z,27.40
2023-06-22T11:42:28.601Z,26.87
2023-06-22T11:43:28.597Z,20.68
2023-06-22T11:44:28.575Z,20.42
2023-06-22T11:45:28.574Z,25.81
2023-06-22T11:46:28.548Z,25.76
2023-06-22T11:47:28.571Z,29.20
2023-06-22T11:48:28.524Z,29.83
2023-06-22T11:49:29.199Z,32.99
2023-06-22T11:50:28.867Z,29.79
2023-06-22T11:51:28.687Z,28.67
2023-06-22T11:52:28.758Z,26.51
2023-06-22T11:53:28.821Z,27.37
2023-06-22T11:54:28.872Z,25.43
2023-06-22T11:55:29.705Z,26.23
2023-06-22T11:56:28.992Z,26.50
2023-06-22T11:57:28.999Z,27.98
2023-06-22T11:58:29.047Z,26.03
2023-06-22T11:59:29.119Z,31.44
2023-06-22T12:00:30.640Z,35.71
2023-06-22T12:01:29.219Z,40.75
2023-06-22T12:02:29.330Z,44.82
2023-06-22T12:03:29.387Z,46.18
2023-06-22T12:04:29.381Z,47.08
2023-06-22T12:05:29.446Z,52.40
2023-06-22T12:06:29.536Z,57.34
2023-06-22T12:07:29.580Z,60.77
2023-06-22T12:08:29.691Z,66.52
2023-06-22T12:09:29.657Z,67.93
2023-06-22T12:10:30.154Z,70.31
2023-06-22T12:11:29.781Z,73.88
2023-06-22T12:12:29.898Z,73.54
2023-06-22T12:13:29.942Z,77.97
2023-06-22T12:14:30.644Z,80.61
2023-06-22T12:15:30.091Z,85.25
2023-06-22T12:16:30.150Z,85.95
2023-06-22T12:17:30.254Z,87.64
2023-06-22T12:18:30.255Z,87.81
2023-06-22T12:19:30.314Z,89.06
2023-06-22T12:20:30.610Z,96.15
2023-06-22T12:21:30.478Z,99.99
2023-06-22T12:22:30.533Z,99.79
2023-06-22T12:23:30.618Z,107.79
2023-06-22T12:24:30.634Z,109.74
2023-06-22T12:25:30.694Z,111.66
2023-06-22T12:26:30.772Z,116.12
2023-06-22T12:27:30.797Z,121.78
2023-06-22T12:28:30.902Z,125.63
2023-06-22T12:29:31.034Z,127.69
2023-06-22T12:30:31.280Z,129.02
2023-06-22T12:31:31.129Z,130.41
2023-06-22T12:32:31.159Z,130.08